createdAt,value
2023-05-14T00:01:48.810Z,56.30
2023-05-14T00:04:19.609Z,57.78
2023-05-14T00:06:47.732Z,56.97
2023-05-14T00:09:15.794Z,56.85
2023-05-14T00:11:43.853Z,54.33
2023-05-14T00:14:11.817Z,59.30
2023-05-14T00:16:39.942Z,58.30
2023-05-14T00:19:08.410Z,61.17
2023-05-14T00:21:37.802Z,59.22
2023-05-14T00:24:06.532Z,63.67
2023-05-14T00:26:34.758Z,59.42
2023-05-14T00:29:02.674Z,59.47
2023-05-14T00:31:30.711Z,60.20
2023-05-14T00:33:58.975Z,59.80
2023-05-14T00:36:27.057Z,61.53
2023-05-14T00:38:56.400Z,62.17
2023-05-14T00:41:24.872Z,63.30
2023-05-14T00:43:52.932Z,59.08
2023-05-14T00:46:21.151Z,61.78
2023-05-14T00:48:49.211Z,59.15
2023-05-14T00:51:17.358Z,57.13
2023-05-14T00:53:45.368Z,53.30
2023-05-14T00:56:15.123Z,60.88
2023-05-14T00:58:43.159Z,64.25
2023-05-14T01:01:12.192Z,64.47
2023-05-14T01:03:40.340Z,61.08
2023-05-14T01:06:12.389Z,63.00
2023-05-14T01:08:48.211Z,64.85
2023-05-14T01:11:21.506Z,59.65
2023-05-14T01:13:58.410Z,56.85
2023-05-14T01:16:28.383Z,62.75
2023-05-14T01:18:57.970Z,60.28
2023-05-14T01:21:35.267Z,64.13
2023-05-14T01:24:03.572Z,66.57
2023-05-14T01:26:32.379Z,57.83
2023-05-14T01:29:15.099Z,60.05
2023-05-14T01:31:45.517Z,59.80
2023-05-14T01:34:14.189Z,67.60
2023-05-14T01:36:45.643Z,66.53
2023-05-14T01:39:15.543Z,66.35
2023-05-14T01:41:44.176Z,65.82
2023-05-14T01:44:12.536Z,61.70
2023-05-14T01:46:40.708Z,66.00
2023-05-14T01:49:08.847Z,58.17
2023-05-14T01:51:37.764Z,63.55
2023-05-14T01:54:07.271Z,60.03
2023-05-14T01:56:35.316Z,60.97
2023-05-14T01:59:03.478Z,63.38
2023-05-14T02:01:31.819Z,67.72
2023-05-14T02:04:01.108Z,63.28
2023-05-14T02:06:29.359Z,70.32
2023-05-14T02:08:57.625Z,67.40
2023-05-14T02:11:28.148Z,67.75
2023-05-14T02:13:56.130Z,61.92
2023-05-14T02:16:24.180Z,66.65
2023-05-14T02:18:52.319Z,62.47
2023-05-14T02:21:20.584Z,66.07
2023-05-14T02:23:49.468Z,62.85
2023-05-14T02:26:17.608Z,66.85
2023-05-14T02:28:46.958Z,63.42
2023-05-14T02:31:14.999Z,66.38
2023-05-14T02:33:43.210Z,62.75
2023-05-14T02:36:11.269Z,60.75
2023-05-14T02:38:39.727Z,61.50
2023-05-14T02:41:07.887Z,62.00
2023-05-14T02:43:35.905Z,60.13
2023-05-14T02:46:05.478Z,61.78
2023-05-14T02:48:33.500Z,64.93
2023-05-14T02:51:01.583Z,59.13
2023-05-14T02:53:29.772Z,63.42
2023-05-14T02:55:57.805Z,55.95
2023-05-14T02:58:28.266Z,68.20
2023-05-14T03:00:56.953Z,63.35
2023-05-14T03:03:26.983Z,64.90
2023-05-14T03:05:55.589Z,59.67
2023-05-14T03:08:23.579Z,58.40
2023-05-14T03:10:51.595Z,61.60
2023-05-14T03:13:20.763Z,62.55
2023-05-14T03:15:49.031Z,60.83
2023-05-14T03:18:17.040Z,60.28
2023-05-14T03:20:46.502Z,58.78
2023-05-14T03:23:15.659Z,63.00
2023-05-14T03:25:43.562Z,59.92
2023-05-14T03:28:11.885Z,60.45
2023-05-14T03:30:40.115Z,57.95
2023-05-14T03:33:08.181Z,62.72
2023-05-14T03:35:36.323Z,59.35
2023-05-14T03:38:05.782Z,59.15
2023-05-14T03:40:33.768Z,65.22
2023-05-14T03:43:02.057Z,60.40
2023-05-14T03:45:30.461Z,59.13
2023-05-14T03:47:58.673Z,60.33
2023-05-14T03:50:26.834Z,60.60
2023-05-14T03:52:55.093Z,61.95
2023-05-14T03:55:24.508Z,62.22
2023-05-14T03:57:52.560Z,52.28
2023-05-14T04:00:21.322Z,56.42
2023-05-14T04:02:49.752Z,54.80
2023-05-14T04:05:18.024Z,57.60
2023-05-14T04:07:46.351Z,64.90
2023-05-14T04:10:14.638Z,58.80
2023-05-14T04:12:44.049Z,58.30
2023-05-14T04:15:13.184Z,58.28
2023-05-14T04:17:41.316Z,56.80
2023-05-14T04:20:10.317Z,58.00
2023-05-14T04:22:38.460Z,58.67
2023-05-14T04:25:07.219Z,62.60
2023-05-14T04:27:35.372Z,58.08
2023-05-14T04:30:06.521Z,57.95
2023-05-14T04:32:34.811Z,54.13
2023-05-14T04:35:04.142Z,55.90
2023-05-14T04:37:33.030Z,56.90
2023-05-14T04:40:01.803Z,59.13
2023-05-14T04:42:29.912Z,52.88
2023-05-14T04:44:57.944Z,58.60
2023-05-14T04:47:27.615Z,57.25
2023-05-14T04:49:55.585Z,60.78
2023-05-14T04:52:23.644Z,62.80
2023-05-14T04:54:51.643Z,59.63
2023-05-14T04:57:19.611Z,59.33
2023-05-14T04:59:47.585Z,57.72
2023-05-14T05:02:15.583Z,52.38
2023-05-14T05:04:45.037Z,54.05
2023-05-14T05:07:13.298Z,59.67
2023-05-14T05:09:41.447Z,52.70
2023-05-14T05:12:10.269Z,59.22
2023-05-14T05:14:38.199Z,53.88
2023-05-14T05:17:06.340Z,53.90
2023-05-14T05:19:43.078Z,50.20
2023-05-14T05:22:13.912Z,59.42
2023-05-14T05:24:42.065Z,49.78
2023-05-14T05:27:10.305Z,54.95
2023-05-14T05:29:38.833Z,57.58
2023-05-14T05:32:08.009Z,64.68
2023-05-14T05:34:36.142Z,57.30
2023-05-14T05:37:05.987Z,62.20
2023-05-14T05:39:35.774Z,53.33
2023-05-14T05:42:03.802Z,53.72
2023-05-14T05:44:31.850Z,54.95
2023-05-14T05:46:59.918Z,55.35
2023-05-14T05:49:27.893Z,56.15
2023-05-14T05:51:55.901Z,55.05
2023-05-14T05:54:24.524Z,55.47
2023-05-14T05:56:53.925Z,55.78
2023-05-14T05:59:22.025Z,56.28
2023-05-14T06:01:50.012Z,56.53
2023-05-14T06:04:18.109Z,54.38
2023-05-14T06:06:46.218Z,56.45
2023-05-14T06:09:14.251Z,61.20
2023-05-14T06:11:42.277Z,58.25
2023-05-14T06:14:11.665Z,57.35
2023-05-14T06:16:39.699Z,55.42
2023-05-14T06:19:08.474Z,55.35
2023-05-14T06:21:36.546Z,57.03
2023-05-14T06:24:04.744Z,52.10
2023-05-14T06:26:32.781Z,54.22
2023-05-14T06:29:01.108Z,47.80
2023-05-14T06:31:30.579Z,53.83
2023-05-14T06:33:58.731Z,52.55
2023-05-14T06:36:27.036Z,45.72
2023-05-14T06:38:55.017Z,53.90
2023-05-14T06:41:23.177Z,50.13
2023-05-14T06:43:51.085Z,47.55
2023-05-14T06:46:19.133Z,49.38
2023-05-14T06:48:48.577Z,47.15
2023-05-14T06:51:16.628Z,43.38
2023-05-14T06:53:44.448Z,44.22
2023-05-14T06:56:13.607Z,42.78
2023-05-14T06:58:41.720Z,47.15
2023-05-14T07:01:09.794Z,41.60
2023-05-14T07:03:37.797Z,40.60
2023-05-14T07:06:07.822Z,47.33
2023-05-14T07:08:36.107Z,40.53
2023-05-14T07:11:04.265Z,47.22
2023-05-14T07:13:32.262Z,46.55
2023-05-14T07:16:00.499Z,40.75
2023-05-14T07:18:28.877Z,42.78
2023-05-14T07:20:56.932Z,41.58
2023-05-14T07:23:26.425Z,41.20
2023-05-14T07:25:54.421Z,39.15
2023-05-14T07:28:22.379Z,39.83
2023-05-14T07:30:50.415Z,43.08
2023-05-14T07:33:20.834Z,36.50
2023-05-14T07:35:48.807Z,34.17
2023-05-14T07:38:17.133Z,34.92
2023-05-14T07:40:46.543Z,35.10
2023-05-14T07:43:15.539Z,35.97
2023-05-14T07:45:43.646Z,34.83
2023-05-14T07:48:13.727Z,32.67
2023-05-14T07:50:42.020Z,31.52
2023-05-14T07:53:09.875Z,32.88
2023-05-14T07:55:38.156Z,33.65
2023-05-14T07:58:10.567Z,34.28
2023-05-14T08:00:38.819Z,31.67
2023-05-14T08:03:06.868Z,35.03
2023-05-14T08:05:34.960Z,33.08
2023-05-14T08:08:02.941Z,34.03
2023-05-14T08:10:31.262Z,33.83
2023-05-14T08:12:59.330Z,28.45
2023-05-14T08:15:28.814Z,29.73
2023-05-14T08:18:03.455Z,33.40
2023-05-14T08:20:31.729Z,27.60
2023-05-14T08:22:59.748Z,26.67
2023-05-14T08:25:27.958Z,30.30
2023-05-14T08:28:00.610Z,29.63
2023-05-14T08:30:30.076Z,31.27
2023-05-14T08:32:59.263Z,32.15
2023-05-14T08:35:27.528Z,29.73
2023-05-14T08:37:56.956Z,28.15
2023-05-14T08:40:25.277Z,28.42
2023-05-14T08:42:53.684Z,25.67
2023-05-14T08:45:23.240Z,27.50
2023-05-14T08:47:52.929Z,26.83
2023-05-14T08:50:22.995Z,28.48
2023-05-14T08:52:51.794Z,25.55
2023-05-14T08:55:20.391Z,24.48
2023-05-14T08:57:48.656Z,28.98
2023-05-14T09:00:17.021Z,23.63
2023-05-14T09:02:48.112Z,23.10
2023-05-14T09:05:18.561Z,23.65
2023-05-14T09:07:46.662Z,27.30
2023-05-14T09:10:15.423Z,26.75
2023-05-14T09:12:43.563Z,24.38
2023-05-14T09:15:14.249Z,23.23
2023-05-14T09:17:42.422Z,23.77
2023-05-14T09:20:12.151Z,23.85
2023-05-14T09:22:41.715Z,23.55
2023-05-14T09:25:12.306Z,23.83
2023-05-14T09:27:40.505Z,23.83
2023-05-14T09:30:10.121Z,23.90
2023-05-14T09:32:40.123Z,23.85
2023-05-14T09:35:17.607Z,24.55
2023-05-14T09:37:49.258Z,23.27
2023-05-14T09:40:19.420Z,24.45
2023-05-14T09:42:48.225Z,27.08
2023-05-14T09:45:16.881Z,22.83
2023-05-14T09:47:46.150Z,23.05
2023-05-14T09:50:14.368Z,23.98
2023-05-14T09:52:42.604Z,23.80
2023-05-14T09:55:12.101Z,24.00
2023-05-14T09:57:40.115Z,23.35
2023-05-14T10:00:10.267Z,23.05
2023-05-14T10:02:41.321Z,22.63
2023-05-14T10:05:10.416Z,21.98
2023-05-14T10:07:43.008Z,22.45
2023-05-14T10:10:16.794Z,24.77
2023-05-14T10:12:47.849Z,22.48
2023-05-14T10:15:18.965Z,22.38
2023-05-14T10:17:56.860Z,23.30
2023-05-14T10:20:26.635Z,22.52
2023-05-14T10:22:54.782Z,23.13
2023-05-14T10:25:24.403Z,22.42
2023-05-14T10:27:52.396Z,20.80
2023-05-14T10:30:22.958Z,25.67
2023-05-14T10:32:51.078Z,23.80
2023-05-14T10:35:22.197Z,25.02
2023-05-14T10:37:52.692Z,24.13
2023-05-14T10:40:21.492Z,24.02
2023-05-14T10:42:50.843Z,21.77
2023-05-14T10:45:18.762Z,20.92
2023-05-14T10:47:47.934Z,19.27
2023-05-14T10:50:17.694Z,24.95
2023-05-14T10:52:46.685Z,21.73
2023-05-14T10:55:15.720Z,18.65
2023-05-14T10:57:45.119Z,21.17
2023-05-14T11:00:15.663Z,19.80
2023-05-14T11:02:45.118Z,21.35
2023-05-14T11:05:15.915Z,24.55
2023-05-14T11:07:45.768Z,20.60
2023-05-14T11:10:15.023Z,19.48
2023-05-14T11:12:44.307Z,18.38
2023-05-14T11:15:14.958Z,19.73
2023-05-14T11:17:44.207Z,20.17
2023-05-14T11:20:13.653Z,19.33
2023-05-14T11:22:43.355Z,19.67
2023-05-14T11:25:14.479Z,20.88
2023-05-14T11:27:44.671Z,20.25
2023-05-14T11:30:18.666Z,21.63
2023-05-14T11:32:48.539Z,19.77
2023-05-14T11:35:17.276Z,21.20
2023-05-14T11:37:45.329Z,20.13
2023-05-14T11:40:17.010Z,20.05
2023-05-14T11:42:45.048Z,19.45
2023-05-14T11:45:13.325Z,19.83
2023-05-14T11:47:43.616Z,19.13
2023-05-14T11:50:12.200Z,19.27
2023-05-14T11:52:41.392Z,19.08
2023-05-14T11:55:13.222Z,20.73
2023-05-14T11:57:41.942Z,18.05
2023-05-14T12:00:13.494Z,18.67
2023-05-14T12:02:43.089Z,19.58
2023-05-14T12:05:14.231Z,19.05
2023-05-14T12:07:42.248Z,17.60
2023-05-14T12:10:12.882Z,20.13
2023-05-14T12:12:40.735Z,19.75
2023-05-14T12:15:13.355Z,18.38
2023-05-14T12:17:41.295Z,17.52
2023-05-14T12:20:12.296Z,19.65
2023-05-14T12:22:41.309Z,22.30
2023-05-14T12:25:13.466Z,20.00
2023-05-14T12:27:41.499Z,18.80
2023-05-14T12:32:41.726Z,19.98
2023-05-14T12:35:11.381Z,19.27
2023-05-14T12:37:40.009Z,19.13
2023-05-14T12:40:09.669Z,22.83
2023-05-14T12:42:37.905Z,18.30
2023-05-14T12:45:08.544Z,16.55
2023-05-14T12:47:37.482Z,18.92
2023-05-14T12:50:06.563Z,19.38
2023-05-14T12:52:39.144Z,21.42
2023-05-14T12:55:08.833Z,17.95
2023-05-14T12:57:36.760Z,18.30
2023-05-14T13:00:07.017Z,17.02
2023-05-14T13:02:42.516Z,15.93
2023-05-14T13:05:11.461Z,16.17
2023-05-14T13:07:40.794Z,16.67
2023-05-14T13:10:09.921Z,16.33
2023-05-14T13:12:38.768Z,15.35
2023-05-14T13:15:07.673Z,18.40
2023-05-14T13:17:35.603Z,16.50
2023-05-14T13:20:04.694Z,17.10
2023-05-14T13:22:32.563Z,15.65
2023-05-14T13:25:01.781Z,15.23
2023-05-14T13:27:30.424Z,17.98
2023-05-14T13:29:58.256Z,17.42
2023-05-14T13:32:26.814Z,15.73
2023-05-14T13:34:54.753Z,14.73
2023-05-14T13:37:22.699Z,14.48
2023-05-14T13:39:51.505Z,15.55
2023-05-14T13:42:20.893Z,14.20
2023-05-14T13:44:48.845Z,15.00
2023-05-14T13:47:16.787Z,16.13
2023-05-14T13:49:44.690Z,13.25
2023-05-14T13:52:12.536Z,13.18
2023-05-14T13:54:41.926Z,13.93
2023-05-14T13:57:09.848Z,14.30
2023-05-14T13:59:39.124Z,15.15
2023-05-14T14:02:07.303Z,11.52
2023-05-14T14:04:35.514Z,13.68
2023-05-14T14:07:06.007Z,13.95
2023-05-14T14:09:36.025Z,10.85
2023-05-14T14:12:05.005Z,14.15
2023-05-14T14:14:33.194Z,14.23
2023-05-14T14:17:02.571Z,10.88
2023-05-14T14:19:30.489Z,11.05
2023-05-14T14:21:58.477Z,10.50
2023-05-14T14:24:26.318Z,12.10
2023-05-14T14:26:54.149Z,12.40
2023-05-14T14:29:23.810Z,10.73
2023-05-14T14:31:51.843Z,11.38
2023-05-14T14:34:21.165Z,14.05
2023-05-14T14:36:49.058Z,10.02
2023-05-14T14:39:16.949Z,10.80
2023-05-14T14:41:47.713Z,14.77
2023-05-14T14:44:15.652Z,12.93
2023-05-14T14:46:43.943Z,10.43
2023-05-14T14:49:11.883Z,10.32
2023-05-14T14:51:41.138Z,12.48
2023-05-14T14:54:09.101Z,9.32
2023-05-14T14:56:37.044Z,11.88
2023-05-14T14:59:05.021Z,12.15
2023-05-14T15:01:32.990Z,9.23
2023-05-14T15:04:00.948Z,10.60
2023-05-14T15:06:28.985Z,13.63
2023-05-14T15:08:58.966Z,11.55
2023-05-14T15:11:26.912Z,9.98
2023-05-14T15:13:54.844Z,15.90
2023-05-14T15:16:22.832Z,13.65
2023-05-14T15:18:50.851Z,15.07
2023-05-14T15:21:18.739Z,13.95
2023-05-14T15:23:46.910Z,16.77
2023-05-14T15:26:16.158Z,15.57
2023-05-14T15:28:44.266Z,16.98
2023-05-14T15:31:12.159Z,14.85
2023-05-14T15:33:41.733Z,16.55
2023-05-14T15:36:10.020Z,14.50
2023-05-14T15:38:37.879Z,16.40
2023-05-14T15:41:05.836Z,16.63
2023-05-14T15:43:35.109Z,15.27
2023-05-14T15:46:03.023Z,14.38
2023-05-14T15:48:30.976Z,15.57
2023-05-14T15:50:58.928Z,13.77
2023-05-14T15:53:26.921Z,13.77
2023-05-14T15:55:54.815Z,11.70
2023-05-14T15:58:22.700Z,19.02
2023-05-14T16:00:52.018Z,11.40
2023-05-14T16:03:20.043Z,11.27
2023-05-14T16:05:48.606Z,13.50
2023-05-14T16:08:16.547Z,11.40
2023-05-14T16:10:44.415Z,15.27
2023-05-14T16:13:12.283Z,12.30
2023-05-14T16:15:40.901Z,12.05
2023-05-14T16:18:10.231Z,11.00
2023-05-14T16:20:38.123Z,10.57
2023-05-14T16:23:06.095Z,10.75
2023-05-14T16:25:34.001Z,11.40
2023-05-14T16:28:01.960Z,12.52
2023-05-14T16:30:29.819Z,12.82
2023-05-14T16:32:57.735Z,11.75
2023-05-14T16:35:27.132Z,13.50
2023-05-14T16:37:55.448Z,9.73
2023-05-14T16:40:24.098Z,11.07
2023-05-14T16:42:52.281Z,12.43
2023-05-14T16:45:20.205Z,11.10
2023-05-14T16:47:48.061Z,11.98
2023-05-14T16:50:15.935Z,10.60
2023-05-14T16:52:45.170Z,11.43
2023-05-14T16:55:13.063Z,10.00
2023-05-14T16:57:40.975Z,12.13
2023-05-14T17:00:10.460Z,13.00
2023-05-14T17:02:40.694Z,12.23
2023-05-14T17:05:09.477Z,11.38
2023-05-14T17:07:38.431Z,11.48
2023-05-14T17:10:08.864Z,11.38
2023-05-14T17:12:36.866Z,11.95
2023-05-14T17:15:05.563Z,13.82
2023-05-14T17:17:34.012Z,12.90
2023-05-14T17:20:01.945Z,11.27
2023-05-14T17:22:29.859Z,10.60
2023-05-14T17:24:57.706Z,12.43
2023-05-14T17:27:29.222Z,11.13
2023-05-14T17:29:57.068Z,14.48
2023-05-14T17:32:25.020Z,10.07
2023-05-14T17:34:53.015Z,12.65
2023-05-14T17:37:20.964Z,14.35
2023-05-14T17:39:48.970Z,11.98
2023-05-14T17:42:16.861Z,13.40
2023-05-14T17:44:46.189Z,12.73
2023-05-14T17:47:14.115Z,11.82
2023-05-14T17:49:41.980Z,14.88
2023-05-14T17:52:09.859Z,14.35
2023-05-14T17:54:37.701Z,10.45
2023-05-14T17:57:05.794Z,13.38
2023-05-14T17:59:33.927Z,11.00
2023-05-14T18:02:03.252Z,12.73
2023-05-14T18:04:31.124Z,12.07
2023-05-14T18:06:59.087Z,11.73
2023-05-14T18:09:27.010Z,10.57
2023-05-14T18:11:56.926Z,11.50
2023-05-14T18:14:27.398Z,12.82
2023-05-14T18:16:55.965Z,14.10
2023-05-14T18:19:25.364Z,12.25
2023-05-14T18:21:55.483Z,12.07
2023-05-14T18:24:23.438Z,13.55
2023-05-14T18:26:51.411Z,15.25
2023-05-14T18:29:19.276Z,15.73
2023-05-14T18:31:47.227Z,12.35
2023-05-14T18:34:15.112Z,17.42
2023-05-14T18:36:44.440Z,13.95
2023-05-14T18:39:14.399Z,15.13
2023-05-14T18:41:43.294Z,13.35
2023-05-14T18:44:11.131Z,16.55
2023-05-14T18:46:39.229Z,17.55
2023-05-14T18:49:07.319Z,14.85
2023-05-14T18:51:35.209Z,14.00
2023-05-14T18:54:04.629Z,12.70
2023-05-14T18:56:34.874Z,14.48
2023-05-14T18:59:02.774Z,18.02
2023-05-14T19:01:31.435Z,15.70
2023-05-14T19:03:59.443Z,16.92
2023-05-14T19:06:27.499Z,15.48
2023-05-14T19:08:55.777Z,15.68
2023-05-14T19:11:25.230Z,20.85
2023-05-14T19:13:56.186Z,15.50
2023-05-14T19:16:24.401Z,16.48
2023-05-14T19:18:52.422Z,15.00
2023-05-14T19:21:20.424Z,16.65
2023-05-14T19:23:48.390Z,16.58
2023-05-14T19:26:17.503Z,17.98
2023-05-14T19:28:46.772Z,16.95
2023-05-14T19:31:15.721Z,15.68
2023-05-14T19:33:44.550Z,21.38
2023-05-14T19:36:12.537Z,14.50
2023-05-14T19:38:40.441Z,20.90
2023-05-14T19:41:08.372Z,18.08
2023-05-14T19:43:36.272Z,21.48
2023-05-14T19:46:06.371Z,15.90
2023-05-14T19:48:34.450Z,16.42
2023-05-14T19:51:02.384Z,17.15
2023-05-14T19:53:30.605Z,15.57
2023-05-14T19:56:01.970Z,15.88
2023-05-14T19:58:32.842Z,18.95
2023-05-14T20:01:00.894Z,16.55
2023-05-14T20:03:30.712Z,16.63
2023-05-14T20:05:58.670Z,19.95
2023-05-14T20:08:26.543Z,15.85
2023-05-14T20:10:54.445Z,16.17
2023-05-14T20:13:25.000Z,16.85
2023-05-14T20:15:53.339Z,22.00
2023-05-14T20:18:21.177Z,22.23
2023-05-14T20:20:50.449Z,19.90
2023-05-14T20:23:20.694Z,17.33
2023-05-14T20:25:53.597Z,17.58
2023-05-14T20:28:21.555Z,22.00
2023-05-14T20:30:49.556Z,23.20
2023-05-14T20:33:17.543Z,21.83
2023-05-14T20:35:45.659Z,22.63
2023-05-14T20:38:17.970Z,24.95
2023-05-14T20:40:45.934Z,23.85
2023-05-14T20:43:13.855Z,23.95
2023-05-14T20:45:41.774Z,25.45
2023-05-14T20:48:12.055Z,34.88
2023-05-14T20:50:40.089Z,29.05
2023-05-14T20:53:10.669Z,27.77
2023-05-14T20:55:41.122Z,25.02
2023-05-14T20:58:09.082Z,26.20
2023-05-14T21:00:36.976Z,30.17
2023-05-14T21:03:05.237Z,27.40
2023-05-14T21:05:33.613Z,31.65
2023-05-14T21:08:01.542Z,28.25
2023-05-14T21:10:29.495Z,32.13
2023-05-14T21:12:58.872Z,41.50
2023-05-14T21:15:27.349Z,42.08
2023-05-14T21:17:55.456Z,49.38
2023-05-14T21:20:23.388Z,43.25
2023-05-14T21:22:51.243Z,48.88
2023-05-14T21:25:19.209Z,50.58
2023-05-14T21:27:47.248Z,58.70
2023-05-14T21:30:16.943Z,64.22
2023-05-14T21:32:44.875Z,71.90
2023-05-14T21:35:12.912Z,79.93
2023-05-14T21:37:40.883Z,82.90
2023-05-14T21:40:12.341Z,85.70
2023-05-14T21:42:40.794Z,90.75
2023-05-14T21:45:09.382Z,93.40
2023-05-14T21:47:38.913Z,99.47
2023-05-14T21:50:07.722Z,100.30
2023-05-14T21:52:35.834Z,95.57
2023-05-14T21:55:03.754Z,91.13
2023-05-14T21:57:34.316Z,100.55
2023-05-14T22:00:03.469Z,93.70
2023-05-14T22:02:32.141Z,89.63
2023-05-14T22:05:01.504Z,94.53
2023-05-14T22:07:29.610Z,99.40
2023-05-14T22:09:57.520Z,90.63
2023-05-14T22:12:26.221Z,94.95
2023-05-14T22:14:54.168Z,100.57
2023-05-14T22:17:22.680Z,96.15
2023-05-14T22:19:50.687Z,90.63
2023-05-14T22:22:19.904Z,97.25
2023-05-14T22:24:47.852Z,100.18
2023-05-14T22:27:15.690Z,100.78
2023-05-14T22:29:43.589Z,103.57
2023-05-14T22:32:11.492Z,108.32
2023-05-14T22:34:39.392Z,94.35
2023-05-14T22:37:07.340Z,92.57
2023-05-14T22:39:36.721Z,97.82
2023-05-14T22:42:04.878Z,94.25
2023-05-14T22:44:32.792Z,93.22
2023-05-14T22:47:00.733Z,90.70
2023-05-14T22:49:28.638Z,83.97
2023-05-14T22:51:56.538Z,82.68
2023-05-14T22:54:24.468Z,87.47
2023-05-14T22:56:53.709Z,85.20
2023-05-14T22:59:23.581Z,88.72
2023-05-14T23:01:51.821Z,83.85
2023-05-14T23:04:19.745Z,85.18
2023-05-14T23:06:48.285Z,87.90
2023-05-14T23:09:16.213Z,89.88
2023-05-14T23:11:44.160Z,89.32
2023-05-14T23:14:13.545Z,86.72
2023-05-14T23:16:41.437Z,90.15
2023-05-14T23:19:09.610Z,91.57
2023-05-14T23:21:37.686Z,96.43
2023-05-14T23:24:06.237Z,79.78
2023-05-14T23:26:34.411Z,90.38
2023-05-14T23:29:02.321Z,85.72
2023-05-14T23:31:32.210Z,80.20
2023-05-14T23:34:00.170Z,86.07
2023-05-14T23:36:28.043Z,105.25
2023-05-14T23:38:55.970Z,91.63
2023-05-14T23:41:23.796Z,77.03
2023-05-14T23:43:51.696Z,65.63
2023-05-14T23:46:19.605Z,67.63
2023-05-14T23:48:48.942Z,63.25
2023-05-14T23:51:16.776Z,71.65
2023-05-14T23:53:44.630Z,72.13
2023-05-14T23:56:12.878Z,70.47
2023-05-14T23:58:43.261Z,70.40
